Time;durP1;ratioP1;P1;durP2;ratioP2;P2;SDS_P1;SDS_P2;PMS_P1;PMS_P2;Temp;Humidity;BMP_temperature;BMP_pressure;BME280_temperature;BME280_humidity;BME280_pressure;Samples;Min_cycle;Max_cycle;Signal;HPM_P1;HPM_P2
2022/04/05 00:00:41;;;;;;;27.23;16.13;;;10.70;99.90;;;;;;5094029;28;20209;-84
2022/04/05 00:03:09;;;;;;;32.53;16.53;;;10.80;99.90;;;;;;5093831;28;20580;-73
2022/04/05 00:05:36;;;;;;;27.50;15.80;;;10.70;99.90;;;;;;5093814;28;20209;-74
2022/04/05 00:08:03;;;;;;;27.87;16.67;;;10.80;99.90;;;;;;5094171;28;20200;-83
2022/04/05 00:10:30;;;;;;;27.80;16.40;;;10.80;99.90;;;;;;5093532;28;20311;-81
2022/04/05 00:12:58;;;;;;;27.67;16.90;;;10.80;99.90;;;;;;5093760;28;20280;-78
2022/04/05 00:15:27;;;;;;;30.33;16.03;;;10.80;99.90;;;;;;5094117;28;20205;-73
2022/04/05 00:17:53;;;;;;;25.63;15.83;;;10.80;99.90;;;;;;5094035;28;20216;-80
2022/04/05 00:20:20;;;;;;;25.57;15.73;;;10.80;99.90;;;;;;5093656;28;20204;-73
2022/04/05 00:22:47;;;;;;;26.33;15.40;;;10.80;99.90;;;;;;5094013;28;20189;-79
2022/04/05 00:25:14;;;;;;;25.73;15.57;;;10.80;99.90;;;;;;5093864;28;20201;-85
2022/04/05 00:27:40;;;;;;;25.50;19.17;;;10.80;99.90;;;;;;5093125;28;20418;-83
2022/04/05 00:30:11;;;;;;;29.97;17.10;;;10.90;99.90;;;;;;5093461;28;20263;-81
2022/04/05 00:32:38;;;;;;;30.97;16.87;;;10.90;99.90;;;;;;5094028;28;20189;-85
2022/04/05 00:35:05;;;;;;;21.97;14.83;;;10.90;99.90;;;;;;5093708;28;20223;-78
2022/04/05 00:37:32;;;;;;;21.40;15.37;;;10.80;99.90;;;;;;5093464;28;20660;-75
2022/04/05 00:39:59;;;;;;;26.63;15.67;;;10.80;99.90;;;;;;5093832;28;20549;-85
2022/04/05 00:42:30;;;;;;;26.47;16.27;;;10.90;99.90;;;;;;5093708;28;20190;-74
2022/04/05 00:44:58;;;;;;;28.43;17.23;;;10.90;99.90;;;;;;5093462;28;20197;-77
2022/04/05 00:47:26;;;;;;;28.50;15.53;;;10.80;99.90;;;;;;5093532;28;20219;-75
2022/04/05 00:49:54;;;;;;;26.77;16.43;;;10.80;99.90;;;;;;5092608;28;20328;-77
2022/04/05 00:52:23;;;;;;;28.48;21.55;;;10.80;99.90;;;;;;5092666;28;20429;-74
2022/04/05 00:54:51;;;;;;;28.40;18.67;;;10.80;99.90;;;;;;5093421;28;20291;-77
2022/04/05 00:57:21;;;;;;;32.67;18.63;;;10.90;99.90;;;;;;5093720;28;20201;-75
2022/04/05 00:59:50;;;;;;;26.20;18.70;;;10.90;99.90;;;;;;5093676;28;20200;-73
2022/04/05 01:02:19;;;;;;;28.73;18.53;;;10.90;99.90;;;;;;5093624;28;20205;-75
2022/04/05 01:04:48;;;;;;;25.23;17.97;;;10.80;99.90;;;;;;5093959;28;20193;-85
2022/04/05 01:07:17;;;;;;;27.73;17.63;;;10.80;99.90;;;;;;5093459;28;20197;-78
2022/04/05 01:09:46;;;;;;;26.47;17.40;;;10.90;99.90;;;;;;5093676;28;20236;-74
2022/04/05 01:12:15;;;;;;;29.83;18.33;;;10.90;99.90;;;;;;5093869;28;20212;-73
2022/04/05 01:14:42;;;;;;;31.37;17.27;;;10.90;99.90;;;;;;5093526;28;20193;-74
2022/04/05 01:17:09;;;;;;;29.27;17.67;;;10.80;99.90;;;;;;5093570;28;20211;-74
2022/04/05 01:19:36;;;;;;;29.83;17.93;;;10.80;99.90;;;;;;5093695;28;20556;-74
2022/04/05 01:22:04;;;;;;;31.03;18.50;;;10.80;99.90;;;;;;5093334;28;20200;-73
2022/04/05 01:24:33;;;;;;;26.83;16.60;;;10.80;99.90;;;;;;5093501;28;20224;-74
2022/04/05 01:27:05;;;;;;;27.20;18.37;;;10.80;99.90;;;;;;5093933;28;20197;-81
2022/04/05 01:29:34;;;;;;;25.67;17.97;;;10.80;99.90;;;;;;5093537;28;20236;-72
2022/04/05 01:32:02;;;;;;;28.80;17.93;;;10.80;99.90;;;;;;5093374;28;20216;-73
2022/04/05 01:34:30;;;;;;;29.00;17.10;;;10.80;99.90;;;;;;5093608;28;20217;-86
2022/04/05 01:36:59;;;;;;;29.57;18.73;;;10.80;99.90;;;;;;5093537;28;20185;-74
2022/04/05 01:39:28;;;;;;;25.23;17.43;;;10.80;99.90;;;;;;5093072;28;20205;-76
2022/04/05 01:41:59;;;;;;;30.23;16.70;;;10.90;99.90;;;;;;5093086;28;20311;-74
2022/04/05 01:44:27;;;;;;;29.83;17.67;;;10.90;99.90;;;;;;5092989;28;20558;-75
2022/04/05 01:46:54;;;;;;;30.40;17.23;;;10.90;99.90;;;;;;5092761;28;20205;-76
2022/04/05 01:49:21;;;;;;;32.87;17.17;;;10.90;99.90;;;;;;5093153;28;20221;-75
2022/04/05 01:51:48;;;;;;;28.53;16.87;;;10.90;99.90;;;;;;5092021;28;20228;-82
2022/04/05 01:54:17;;;;;;;33.27;17.97;;;10.90;99.90;;;;;;5095490;28;20656;-77
2022/04/05 01:56:45;;;;;;;27.83;16.97;;;10.80;99.90;;;;;;5095230;28;20205;-74
2022/04/05 01:59:16;;;;;;;32.37;17.50;;;10.80;99.90;;;;;;5095513;28;20212;-83
2022/04/05 02:01:43;;;;;;;28.20;18.27;;;10.80;99.90;;;;;;5096759;28;20205;-73
2022/04/05 02:04:11;;;;;;;28.57;17.47;;;10.90;99.90;;;;;;5096775;28;20208;-81
2022/04/05 02:06:39;;;;;;;31.37;17.70;;;10.90;99.90;;;;;;5094978;28;20223;-74
2022/04/05 02:09:06;;;;;;;31.37;17.10;;;10.80;99.90;;;;;;5096240;28;20284;-79
2022/04/05 02:11:33;;;;;;;28.43;17.33;;;10.80;99.90;;;;;;5096187;28;20194;-76
2022/04/05 02:14:00;;;;;;;33.40;17.87;;;10.80;99.90;;;;;;5096257;28;20216;-74
2022/04/05 02:16:28;;;;;;;34.47;17.00;;;10.80;99.90;;;;;;5096191;28;20197;-74
2022/04/05 02:18:55;;;;;;;30.43;17.73;;;10.80;99.90;;;;;;5096320;28;20201;-82
2022/04/05 02:21:22;;;;;;;26.77;16.17;;;10.80;99.90;;;;;;5095669;28;20205;-74
2022/04/05 02:23:49;;;;;;;25.90;15.83;;;10.80;99.90;;;;;;5095738;28;20201;-83
2022/04/05 02:26:16;;;;;;;25.47;16.03;;;10.80;99.90;;;;;;5096224;28;20201;-75
2022/04/05 02:28:43;;;;;;;26.17;15.87;;;10.90;99.90;;;;;;5095706;28;20282;-78
2022/04/05 02:31:10;;;;;;;25.07;16.63;;;10.90;99.90;;;;;;5095554;28;20687;-86
2022/04/05 02:33:40;;;;;;;29.03;16.77;;;10.90;99.90;;;;;;5095900;28;20190;-81
2022/04/05 02:36:07;;;;;;;33.07;15.80;;;10.90;99.90;;;;;;5095668;28;20268;-74
2022/04/05 02:38:34;;;;;;;27.57;15.87;;;10.90;99.90;;;;;;5095633;28;20243;-73
2022/04/05 02:41:04;;;;;;;23.87;15.60;;;10.80;99.90;;;;;;5096167;28;20209;-74
2022/04/05 02:43:31;;;;;;;25.63;15.63;;;10.80;99.90;;;;;;5095552;28;20207;-77
2022/04/05 02:45:58;;;;;;;28.27;15.57;;;10.80;99.90;;;;;;5095698;28;20607;-75
2022/04/05 02:48:25;;;;;;;28.37;15.67;;;10.80;99.90;;;;;;5095903;28;20258;-76
2022/04/05 02:50:53;;;;;;;23.00;15.70;;;10.80;99.90;;;;;;5094905;28;20590;-74
2022/04/05 02:53:20;;;;;;;30.30;16.37;;;10.90;99.90;;;;;;5095905;28;20209;-76
2022/04/05 02:55:47;;;;;;;25.17;16.33;;;10.80;99.90;;;;;;5095519;28;20201;-73
2022/04/05 02:58:14;;;;;;;26.97;17.40;;;10.80;99.90;;;;;;5095068;28;20205;-79
2022/04/05 03:00:41;;;;;;;26.77;16.90;;;10.80;99.90;;;;;;5095514;28;20204;-79
2022/04/05 03:03:08;;;;;;;24.77;16.27;;;10.80;99.90;;;;;;5094983;28;20578;-74
2022/04/05 03:05:34;;;;;;;26.63;16.53;;;10.90;99.90;;;;;;5094835;28;20201;-80
2022/04/05 03:08:04;;;;;;;24.30;16.70;;;10.90;99.90;;;;;;5095643;28;20205;-75
2022/04/05 03:10:32;;;;;;;26.40;15.20;;;10.90;99.90;;;;;;5095037;28;20664;-78
2022/04/05 03:13:00;;;;;;;26.03;15.57;;;10.90;99.90;;;;;;5094800;28;20189;-83
2022/04/05 03:15:27;;;;;;;28.77;16.90;;;10.90;99.90;;;;;;5095000;28;20201;-82
2022/04/05 03:17:55;;;;;;;28.40;16.40;;;10.90;99.90;;;;;;5094508;28;20212;-80
2022/04/05 03:20:22;;;;;;;25.77;15.40;;;10.90;99.90;;;;;;5095169;28;20196;-73
2022/04/05 03:22:49;;;;;;;27.00;16.67;;;10.90;99.90;;;;;;5094587;28;20695;-74
2022/04/05 03:25:17;;;;;;;29.13;17.13;;;10.90;99.90;;;;;;5094240;28;20201;-80
2022/04/05 03:27:45;;;;;;;20.70;16.63;;;10.90;99.90;;;;;;5094649;28;20640;-81
2022/04/05 03:30:14;;;;;;;23.43;15.47;;;10.90;99.90;;;;;;5094451;28;20232;-75
2022/04/05 03:32:41;;;;;;;26.43;17.07;;;10.90;99.90;;;;;;5094809;28;20194;-78
2022/04/05 03:35:09;;;;;;;25.07;16.23;;;10.80;99.90;;;;;;5094792;28;20212;-74
2022/04/05 03:37:36;;;;;;;23.33;14.83;;;10.80;99.90;;;;;;5095057;28;20193;-74
2022/04/05 03:40:04;;;;;;;21.40;15.17;;;10.90;99.90;;;;;;5094782;28;20212;-74
2022/04/05 03:42:33;;;;;;;27.50;16.23;;;10.90;99.90;;;;;;5094661;28;20200;-77
2022/04/05 03:45:00;;;;;;;26.42;19.30;;;10.90;99.90;;;;;;5093151;28;20430;-82
2022/04/05 03:47:27;;;;;;;24.63;16.20;;;10.90;99.90;;;;;;5093607;28;20209;-75
2022/04/05 03:49:54;;;;;;;28.23;15.70;;;10.90;99.90;;;;;;5094100;28;20695;-75
2022/04/05 03:52:21;;;;;;;24.37;15.70;;;10.90;99.90;;;;;;5094390;28;20209;-75
2022/04/05 03:54:48;;;;;;;28.27;16.50;;;10.90;99.90;;;;;;5093853;28;20205;-74
2022/04/05 03:57:15;;;;;;;24.13;16.17;;;10.90;99.90;;;;;;5094661;28;20197;-75
2022/04/05 03:59:43;;;;;;;28.67;15.40;;;10.90;99.90;;;;;;5094495;28;20216;-74
2022/04/05 04:02:11;;;;;;;28.63;15.40;;;10.90;99.90;;;;;;5094582;28;20197;-74
2022/04/05 04:04:38;;;;;;;26.10;15.63;;;10.80;99.90;;;;;;5094404;28;20201;-81
2022/04/05 04:07:05;;;;;;;28.17;15.70;;;10.80;99.90;;;;;;5094688;28;20280;-74
2022/04/05 04:09:32;;;;;;;25.97;14.80;;;10.80;99.90;;;;;;5093808;28;20197;-74
2022/04/05 04:11:58;;;;;;;24.73;15.67;;;10.90;99.90;;;;;;5093990;28;20280;-74
2022/04/05 04:14:25;;;;;;;25.60;15.60;;;10.80;99.90;;;;;;5093886;28;20583;-74
2022/04/05 04:16:53;;;;;;;28.70;15.60;;;10.80;99.90;;;;;;5092967;28;20209;-74
2022/04/05 04:19:20;;;;;;;23.00;15.57;;;10.80;99.90;;;;;;5093940;28;20237;-76
2022/04/05 04:21:47;;;;;;;19.10;14.60;;;10.80;99.90;;;;;;5094158;28;20196;-76
2022/04/05 04:24:14;;;;;;;22.57;12.90;;;10.90;99.90;;;;;;5094237;28;20241;-74
2022/04/05 04:26:41;;;;;;;22.30;14.30;;;10.80;99.90;;;;;;5093984;28;20208;-73
2022/04/05 04:29:07;;;;;;;20.87;14.63;;;10.80;99.90;;;;;;5094092;28;20217;-83
2022/04/05 04:31:34;;;;;;;18.80;13.50;;;10.80;99.90;;;;;;5093202;28;20225;-73
2022/04/05 04:34:02;;;;;;;19.95;17.08;;;10.80;99.90;;;;;;5093030;28;20423;-73
2022/04/05 04:36:29;;;;;;;23.33;15.87;;;10.90;99.90;;;;;;5093806;28;20209;-75
2022/04/05 04:38:56;;;;;;;20.50;14.70;;;10.90;99.90;;;;;;5094169;28;20560;-74
2022/04/05 04:41:23;;;;;;;20.63;14.93;;;10.80;99.90;;;;;;5093381;28;20204;-74
2022/04/05 04:43:51;;;;;;;21.97;17.63;;;10.80;99.90;;;;;;5093681;28;20549;-74
2022/04/05 04:46:17;;;;;;;23.83;16.10;;;10.80;99.90;;;;;;5093330;28;20219;-73
2022/04/05 04:48:44;;;;;;;19.07;15.97;;;10.80;99.90;;;;;;5093712;28;20663;-74
2022/04/05 04:51:13;;;;;;;19.70;15.07;;;10.80;99.90;;;;;;5093398;28;20707;-80
2022/04/05 04:53:40;;;;;;;21.40;15.97;;;10.80;99.90;;;;;;5093636;28;20197;-80
2022/04/05 04:56:08;;;;;;;22.23;16.67;;;10.80;99.90;;;;;;5093644;28;20563;-81
2022/04/05 04:58:36;;;;;;;22.30;15.77;;;10.80;99.90;;;;;;5093943;28;20197;-82
2022/04/05 05:01:03;;;;;;;20.43;13.73;;;10.80;99.90;;;;;;5092830;28;20205;-81
2022/04/05 05:03:29;;;;;;;20.67;14.30;;;10.80;99.90;;;;;;5111680;28;20204;-81
2022/04/05 05:05:56;;;;;;;18.57;14.67;;;10.80;99.90;;;;;;5113119;28;20208;-81
2022/04/05 05:08:25;;;;;;;18.53;12.70;;;10.90;99.90;;;;;;5112968;28;20200;-83
2022/04/05 05:10:53;;;;;;;15.07;12.60;;;10.80;99.90;;;;;;5113330;28;20249;-81
2022/04/05 05:13:20;;;;;;;16.23;12.70;;;10.80;99.90;;;;;;5114503;28;20207;-78
2022/04/05 05:15:48;;;;;;;16.67;12.13;;;10.80;99.90;;;;;;5113733;28;20194;-81
2022/04/05 05:18:16;;;;;;;17.07;12.70;;;10.80;99.90;;;;;;5113781;28;20204;-80
2022/04/05 05:20:43;;;;;;;18.10;11.77;;;10.80;99.90;;;;;;5113702;28;20193;-79
2022/04/05 05:23:10;;;;;;;19.50;14.63;;;10.80;99.90;;;;;;5112799;28;20417;-81
2022/04/05 05:25:38;;;;;;;15.93;11.73;;;10.90;99.90;;;;;;5113657;28;20546;-78
2022/04/05 05:28:05;;;;;;;13.67;11.67;;;10.90;99.90;;;;;;5113962;28;20189;-84
2022/04/05 05:30:32;;;;;;;14.50;11.07;;;10.90;99.90;;;;;;5116394;28;20236;-78
2022/04/05 05:32:59;;;;;;;11.83;10.60;;;10.90;99.90;;;;;;5117632;28;20199;-80
2022/04/05 05:35:28;;;;;;;13.60;10.90;;;10.90;99.90;;;;;;5117551;28;20212;-80
2022/04/05 05:37:57;;;;;;;15.77;11.30;;;10.90;99.90;;;;;;5117384;28;20204;-81
2022/04/05 05:40:24;;;;;;;15.67;11.40;;;10.90;99.90;;;;;;5117379;28;20209;-80
2022/04/05 05:42:55;;;;;;;13.57;11.27;;;10.90;99.90;;;;;;5117556;28;20196;-79
2022/04/05 05:45:22;;;;;;;17.73;11.83;;;11.00;99.90;;;;;;5117478;28;20201;-83
2022/04/05 05:47:49;;;;;;;15.38;13.77;;;10.90;99.90;;;;;;5116529;28;20439;-82
2022/04/05 05:50:16;;;;;;;15.77;11.87;;;11.00;99.90;;;;;;5117398;28;20204;-80
2022/04/05 05:52:44;;;;;;;16.67;12.40;;;10.90;99.90;;;;;;5117451;28;20200;-77
2022/04/05 05:55:12;;;;;;;15.97;12.03;;;10.90;99.90;;;;;;5117692;28;20656;-78
2022/04/05 05:57:39;;;;;;;14.37;11.57;;;10.90;99.90;;;;;;5116928;28;20530;-78
2022/04/05 06:00:10;;;;;;;17.63;12.63;;;10.90;99.90;;;;;;5116842;28;20200;-78
2022/04/05 06:02:38;;;;;;;16.73;11.83;;;10.80;99.90;;;;;;5117577;28;20219;-81
2022/04/05 06:05:06;;;;;;;14.57;11.43;;;10.90;99.90;;;;;;5116800;28;20655;-81
2022/04/05 06:07:34;;;;;;;17.03;12.83;;;10.90;99.90;;;;;;5116745;28;20205;-83
2022/04/05 06:10:01;;;;;;;19.63;13.13;;;10.90;99.90;;;;;;5116893;28;20555;-82
2022/04/05 06:12:28;;;;;;;15.13;12.00;;;10.90;99.90;;;;;;5116611;28;20235;-82
2022/04/05 06:14:56;;;;;;;14.23;12.40;;;10.90;99.90;;;;;;5117236;28;20207;-84
2022/04/05 06:17:25;;;;;;;17.70;13.10;;;10.90;99.90;;;;;;5116975;28;20236;-79
2022/04/05 06:19:52;;;;;;;15.43;12.30;;;10.90;99.90;;;;;;5117005;28;20224;-84
2022/04/05 06:22:19;;;;;;;16.43;13.20;;;11.00;99.90;;;;;;5116923;28;20188;-78
2022/04/05 06:24:47;;;;;;;19.23;13.13;;;11.00;99.90;;;;;;5117110;28;20196;-82
2022/04/05 06:27:13;;;;;;;18.10;13.07;;;10.90;99.90;;;;;;5116601;28;20261;-84
2022/04/05 06:29:40;;;;;;;14.60;13.00;;;11.00;99.90;;;;;;5116761;28;20244;-79
2022/04/05 06:32:08;;;;;;;15.33;13.10;;;11.00;99.90;;;;;;5115868;28;20623;-87
2022/04/05 06:34:38;;;;;;;16.63;12.20;;;11.00;99.90;;;;;;5116416;28;20184;-81
2022/04/05 06:37:05;;;;;;;14.73;12.77;;;11.00;99.90;;;;;;5116518;28;20204;-81
2022/04/05 06:39:32;;;;;;;19.53;13.73;;;11.00;99.90;;;;;;5116105;28;20645;-80
2022/04/05 06:42:00;;;;;;;17.17;13.23;;;11.00;99.90;;;;;;5115732;28;20734;-80
2022/04/05 06:44:27;;;;;;;17.33;13.17;;;11.00;99.90;;;;;;5115950;28;20212;-84
2022/04/05 06:46:54;;;;;;;16.73;13.70;;;11.00;99.90;;;;;;5116157;28;20209;-80
2022/04/05 06:49:20;;;;;;;19.27;14.20;;;11.00;99.90;;;;;;5116007;28;20571;-85
2022/04/05 06:51:49;;;;;;;16.80;13.67;;;11.10;99.90;;;;;;5116027;28;20574;-84
2022/04/05 06:54:15;;;;;;;20.30;13.60;;;11.10;99.90;;;;;;5115190;28;20204;-84
2022/04/05 06:56:42;;;;;;;15.67;13.97;;;11.10;99.90;;;;;;5115118;28;20201;-80
2022/04/05 06:59:09;;;;;;;15.17;13.50;;;11.10;99.90;;;;;;5115897;28;20211;-83
2022/04/05 07:01:37;;;;;;;18.58;16.55;;;11.10;99.90;;;;;;5115153;28;20436;-86
2022/04/05 07:04:05;;;;;;;17.73;13.97;;;11.10;99.90;;;;;;5115762;28;20197;-79
2022/04/05 07:06:32;;;;;;;16.53;13.10;;;11.20;99.90;;;;;;5115962;28;20291;-82
2022/04/05 07:09:01;;;;;;;16.60;12.83;;;11.10;99.90;;;;;;5115195;28;20197;-80
2022/04/05 07:11:27;;;;;;;14.47;12.10;;;11.10;99.90;;;;;;5115265;28;20236;-80
2022/04/05 07:13:54;;;;;;;12.83;11.53;;;11.10;99.90;;;;;;5115419;28;20208;-84
2022/04/05 07:16:21;;;;;;;15.20;11.70;;;11.10;99.90;;;;;;5115525;28;20212;-80
2022/04/05 07:18:49;;;;;;;18.33;12.57;;;11.10;99.90;;;;;;5115741;28;20205;-80
2022/04/05 07:21:20;;;;;;;13.47;10.80;;;11.10;99.90;;;;;;5115217;28;20200;-79
2022/04/05 07:23:47;;;;;;;14.00;11.90;;;11.10;99.90;;;;;;5115147;28;20201;-79
2022/04/05 07:26:15;;;;;;;13.57;12.17;;;11.10;99.90;;;;;;5114529;28;20208;-80
2022/04/05 07:28:43;;;;;;;15.17;12.50;;;11.20;99.90;;;;;;5114822;28;20220;-78
2022/04/05 07:31:10;;;;;;;16.30;12.93;;;11.20;99.90;;;;;;5122542;28;20239;-78
2022/04/05 07:33:37;;;;;;;17.40;12.10;;;11.20;99.90;;;;;;5117710;28;20188;-80
2022/04/05 07:36:04;;;;;;;14.03;12.40;;;11.20;99.90;;;;;;5114826;28;20208;-79
2022/04/05 07:38:31;;;;;;;16.93;13.00;;;11.20;99.90;;;;;;5110898;28;20570;-76
2022/04/05 07:40:58;;;;;;;14.47;12.53;;;11.20;99.90;;;;;;5101742;28;20194;-79
2022/04/05 07:43:28;;;;;;;15.77;12.93;;;11.20;99.90;;;;;;5100192;28;20572;-78
2022/04/05 07:45:56;;;;;;;15.03;13.13;;;11.20;99.90;;;;;;5105321;28;20307;-76
2022/04/05 07:48:27;;;;;;;14.63;13.23;;;11.20;99.90;;;;;;5104880;28;20201;-77
2022/04/05 07:50:54;;;;;;;17.00;15.30;;;11.30;99.90;;;;;;5107748;28;20431;-76
2022/04/05 07:53:21;;;;;;;14.37;12.70;;;11.30;99.90;;;;;;5112997;28;20189;-76
2022/04/05 07:55:48;;;;;;;15.93;13.10;;;11.30;99.90;;;;;;5114175;28;20208;-74
2022/04/05 07:58:15;;;;;;;13.77;12.30;;;11.20;99.90;;;;;;5114384;28;20200;-78
2022/04/05 08:00:43;;;;;;;13.57;12.17;;;11.30;99.90;;;;;;5114190;28;20204;-79
2022/04/05 08:03:10;;;;;;;13.93;12.50;;;11.30;99.90;;;;;;5114128;28;20200;-80
2022/04/05 08:05:37;;;;;;;15.37;12.10;;;11.30;99.90;;;;;;5114133;28;20195;-78
2022/04/05 08:08:05;;;;;;;13.53;11.73;;;11.30;99.90;;;;;;5114182;28;20196;-76
2022/04/05 08:10:32;;;;;;;11.90;10.80;;;11.30;99.90;;;;;;5114077;28;20196;-79
2022/04/05 08:13:00;;;;;;;12.23;11.00;;;11.40;99.90;;;;;;5113724;28;20228;-75
2022/04/05 08:15:27;;;;;;;13.73;11.67;;;11.50;99.90;;;;;;5114061;28;20203;-76
2022/04/05 08:17:56;;;;;;;13.50;11.90;;;11.40;99.90;;;;;;5114241;28;20203;-78
2022/04/05 08:20:23;;;;;;;14.70;12.47;;;11.50;99.90;;;;;;5114055;28;20236;-81
2022/04/05 08:22:50;;;;;;;14.70;12.53;;;11.60;99.90;;;;;;5114099;28;20194;-83
2022/04/05 08:25:18;;;;;;;12.40;10.60;;;11.60;99.90;;;;;;5113719;28;20204;-77
2022/04/05 08:27:46;;;;;;;14.90;12.43;;;11.60;99.90;;;;;;5113563;28;20201;-83
2022/04/05 08:30:17;;;;;;;13.90;12.23;;;11.60;99.90;;;;;;5107902;28;20221;-77
2022/04/05 08:32:44;;;;;;;12.90;11.77;;;11.60;99.90;;;;;;5103775;28;20273;-80
2022/04/05 08:35:15;;;;;;;12.63;11.33;;;11.60;99.90;;;;;;5107495;28;20205;-84
2022/04/05 08:37:42;;;;;;;11.90;10.90;;;11.70;99.90;;;;;;5093371;28;20212;-84
2022/04/05 08:40:10;;;;;;;13.00;11.53;;;11.70;99.90;;;;;;5093518;28;20197;-81
2022/04/05 08:42:38;;;;;;;13.27;11.40;;;11.70;99.90;;;;;;5093552;28;20197;-75
2022/04/05 08:45:10;;;;;;;11.27;10.17;;;11.80;99.90;;;;;;5094119;28;20194;-75
2022/04/05 08:47:40;;;;;;;12.03;10.83;;;11.80;99.90;;;;;;5093545;28;20237;-78
2022/04/05 08:50:08;;;;;;;13.20;11.33;;;11.80;99.90;;;;;;5093565;28;20193;-75
2022/04/05 08:52:36;;;;;;;11.20;10.20;;;11.70;99.90;;;;;;5093363;28;20217;-75
2022/04/05 08:55:04;;;;;;;11.53;10.50;;;11.70;99.90;;;;;;5093126;28;20687;-80
2022/04/05 08:57:31;;;;;;;11.60;10.50;;;11.80;99.90;;;;;;5092498;28;20202;-77
2022/04/05 08:59:58;;;;;;;11.17;10.07;;;11.70;99.90;;;;;;5093408;28;20210;-76
2022/04/05 09:02:27;;;;;;;11.17;10.17;;;11.80;99.90;;;;;;5093058;28;20212;-76
2022/04/05 09:04:55;;;;;;;12.48;11.32;;;11.80;99.90;;;;;;5096113;28;20433;-80
2022/04/05 09:07:24;;;;;;;12.03;10.37;;;11.80;99.90;;;;;;5097270;28;20194;-84
2022/04/05 09:10:12;;;;;;;11.97;10.60;;;12.00;99.90;;;;;;5097304;28;20688;-75
2022/04/05 09:12:43;;;;;;;11.00;9.90;;;11.80;99.90;;;;;;5097052;28;20712;-77
2022/04/05 09:15:23;;;;;;;10.53;9.57;;;11.80;99.90;;;;;;5097362;28;20197;-76
2022/04/05 09:17:50;;;;;;;9.97;9.07;;;11.90;99.90;;;;;;5097749;28;20225;-77
2022/04/05 09:20:19;;;;;;;10.37;9.20;;;12.00;99.90;;;;;;5097275;28;20191;-76
2022/04/05 09:22:48;;;;;;;11.37;8.73;;;12.00;99.90;;;;;;5097051;28;20202;-80
2022/04/05 09:25:17;;;;;;;10.07;9.07;;;12.00;99.90;;;;;;5097216;28;20206;-77
2022/04/05 09:27:49;;;;;;;9.20;8.50;;;12.00;99.90;;;;;;5096959;28;20191;-80
2022/04/05 09:30:18;;;;;;;9.67;8.63;;;12.00;99.90;;;;;;5097016;28;20222;-79
2022/04/05 09:32:48;;;;;;;9.23;8.27;;;12.00;99.90;;;;;;5097193;28;20221;-81
2022/04/05 09:35:16;;;;;;;9.17;8.37;;;12.10;99.90;;;;;;5096384;28;20538;-79
2022/04/05 09:37:43;;;;;;;8.90;8.03;;;12.10;99.90;;;;;;5096740;28;20201;-76
2022/04/05 09:40:23;;;;;;;8.77;7.93;;;12.10;99.90;;;;;;5096490;28;20190;-75
2022/04/05 09:43:02;;;;;;;9.43;8.43;;;12.10;99.90;;;;;;5096348;28;20243;-79
2022/04/05 09:45:51;;;;;;;9.50;8.60;;;12.10;99.90;;;;;;5107538;28;20205;-78
2022/04/05 09:48:21;;;;;;;10.43;9.17;;;12.00;99.90;;;;;;5106673;28;20203;-78
2022/04/05 09:51:07;;;;;;;9.50;8.60;;;12.00;99.90;;;;;;5106216;28;20671;-74
2022/04/05 09:53:47;;;;;;;11.40;10.30;;;11.90;99.90;;;;;;5095509;28;20446;-80
2022/04/05 09:56:17;;;;;;;10.60;9.60;;;12.00;99.90;;;;;;5096248;28;20503;-79
2022/04/05 09:58:48;;;;;;;11.23;9.77;;;12.10;99.90;;;;;;5096063;28;20197;-83
2022/04/05 10:01:16;;;;;;;10.37;9.47;;;12.20;99.90;;;;;;5095253;28;20616;-79
2022/04/05 10:03:44;;;;;;;10.73;9.93;;;12.20;99.90;;;;;;5095213;28;20186;-76
2022/04/05 10:06:12;;;;;;;9.83;8.93;;;12.20;99.90;;;;;;5095346;28;20540;-81
2022/04/05 10:08:40;;;;;;;10.20;9.30;;;12.10;99.90;;;;;;5095466;28;20202;-78
2022/04/05 10:11:06;;;;;;;10.80;9.83;;;12.00;99.90;;;;;;5104057;28;20197;-77
2022/04/05 10:13:35;;;;;;;10.30;9.50;;;12.00;99.90;;;;;;5105755;28;20208;-77
2022/04/05 10:16:02;;;;;;;11.00;10.17;;;12.00;99.90;;;;;;5103971;28;20210;-83
2022/04/05 10:18:36;;;;;;;10.07;9.27;;;12.10;99.90;;;;;;5104905;28;20190;-76
2022/04/05 10:21:04;;;;;;;11.13;10.23;;;12.10;99.90;;;;;;5095558;28;20310;-81
2022/04/05 10:23:33;;;;;;;11.63;10.53;;;12.10;99.90;;;;;;5094739;28;20202;-75
2022/04/05 10:26:00;;;;;;;10.97;10.00;;;12.10;99.90;;;;;;5104793;28;20204;-81
2022/04/05 10:28:30;;;;;;;11.23;10.30;;;12.10;99.90;;;;;;5099615;28;20219;-76
2022/04/05 10:31:13;;;;;;;10.60;9.70;;;12.00;99.90;;;;;;5095844;28;20205;-81
2022/04/05 10:33:49;;;;;;;12.30;9.10;;;12.10;99.90;;;;;;5095430;28;20337;-74
2022/04/05 10:36:22;;;;;;;11.73;10.77;;;12.00;99.90;;;;;;5101591;28;20189;-75
2022/04/05 10:39:14;;;;;;;11.27;10.03;;;12.00;99.90;;;;;;5104972;28;20186;-76
2022/04/05 10:41:41;;;;;;;12.87;11.67;;;12.00;99.90;;;;;;5106913;27;20194;-79
2022/04/05 10:44:23;;;;;;;11.10;10.07;;;12.00;99.90;;;;;;5107334;28;20206;-76
2022/04/05 10:46:55;;;;;;;10.27;9.43;;;12.10;99.90;;;;;;5103900;28;20202;-75
2022/04/05 10:49:35;;;;;;;11.30;10.20;;;12.10;99.90;;;;;;5094844;28;20201;-80
2022/04/05 10:52:10;;;;;;;10.77;9.87;;;12.10;99.90;;;;;;5095365;28;20218;-76
2022/04/05 10:54:40;;;;;;;10.43;9.53;;;12.20;99.90;;;;;;5101382;28;20193;-79
2022/04/05 10:57:26;;;;;;;10.17;9.33;;;12.20;99.90;;;;;;5109217;28;20206;-79
2022/04/05 10:59:58;;;;;;;10.33;9.43;;;12.20;99.90;;;;;;5115269;28;20197;-80
2022/04/05 11:02:36;;;;;;;8.90;8.27;;;12.20;99.90;;;;;;5114859;28;20208;-82
2022/04/05 11:05:31;;;;;;;10.90;9.90;;;12.20;99.90;;;;;;5115932;28;20194;-82
2022/04/05 11:08:12;;;;;;;10.07;9.33;;;12.30;99.90;;;;;;5108897;28;20200;-80
2022/04/05 11:10:54;;;;;;;8.17;7.53;;;12.30;99.90;;;;;;5094540;28;20212;-74
2022/04/05 11:13:35;;;;;;;9.90;9.00;;;12.30;99.90;;;;;;5092744;28;20232;-80
2022/04/05 11:16:04;;;;;;;9.53;8.63;;;12.30;99.90;;;;;;5093899;28;20676;-76
2022/04/05 11:18:34;;;;;;;10.27;8.17;;;12.50;99.90;;;;;;5111827;28;20201;-76
2022/04/05 11:21:03;;;;;;;9.00;8.30;;;12.40;99.90;;;;;;5096765;28;20670;-74
2022/04/05 11:23:53;;;;;;;9.17;8.47;;;12.50;99.90;;;;;;5106742;28;20209;-79
2022/04/05 11:26:33;;;;;;;8.63;7.97;;;12.50;99.90;;;;;;5113658;28;20291;-74
2022/04/05 11:29:01;;;;;;;9.23;8.23;;;12.50;99.90;;;;;;5114086;28;20216;-74
2022/04/05 11:31:37;;;;;;;8.30;7.50;;;12.60;99.90;;;;;;5113981;28;20194;-75
2022/04/05 11:34:37;;;;;;;8.73;8.03;;;12.70;99.90;;;;;;5114548;28;20232;-76
2022/04/05 11:37:07;;;;;;;6.57;6.00;;;12.90;99.90;;;;;;5115607;28;20206;-76
2022/04/05 11:39:39;;;;;;;7.33;6.30;;;12.80;99.90;;;;;;5114852;28;20209;-78
2022/04/05 11:42:06;;;;;;;7.53;6.93;;;12.80;99.90;;;;;;5114405;28;20218;-78
2022/04/05 11:44:34;;;;;;;7.13;6.53;;;12.80;99.90;;;;;;5114115;28;20209;-75
2022/04/05 11:47:01;;;;;;;7.17;6.67;;;12.70;99.90;;;;;;5113567;28;20211;-77
2022/04/05 11:49:41;;;;;;;6.90;6.50;;;12.80;99.90;;;;;;5114490;28;20229;-82
2022/04/05 11:52:10;;;;;;;7.90;7.20;;;12.90;99.90;;;;;;5114576;28;20676;-80
2022/04/05 11:56:00;;;;;;;9.00;8.27;;;13.10;99.90;;;;;;5114354;28;20206;-81
2022/04/05 11:57:24;;;;;;;8.02;7.53;;;13.10;99.90;;;;;;5113143;28;20460;-80
2022/04/05 12:00:06;;;;;;;7.83;7.23;;;13.60;99.90;;;;;;5113939;28;20658;-81
2022/04/05 12:02:33;;;;;;;7.80;7.10;;;13.40;99.90;;;;;;5114674;28;20195;-80
2022/04/05 12:05:00;;;;;;;7.60;7.10;;;13.40;99.90;;;;;;5107640;28;20211;-80
2022/04/05 12:07:33;;;;;;;6.93;6.33;;;13.40;99.90;;;;;;5094400;28;20208;-81
2022/04/05 12:10:00;;;;;;;5.73;5.43;;;13.40;99.90;;;;;;5101058;28;20195;-76
2022/04/05 12:12:27;;;;;;;6.37;5.97;;;13.30;99.90;;;;;;5113826;28;20228;-81
2022/04/05 12:14:54;;;;;;;6.43;5.93;;;13.40;99.90;;;;;;5105718;28;20552;-76
2022/04/05 12:17:24;;;;;;;6.27;5.87;;;13.40;99.90;;;;;;5094935;28;20218;-81
2022/04/05 12:19:53;;;;;;;5.63;5.30;;;13.40;99.90;;;;;;5094199;28;20196;-78
2022/04/05 12:22:20;;;;;;;5.70;5.27;;;13.40;99.90;;;;;;5102037;28;20206;-77
2022/04/05 12:24:50;;;;;;;5.47;5.13;;;13.20;99.90;;;;;;5102782;28;20674;-80
2022/04/05 12:27:21;;;;;;;4.43;4.13;;;13.20;99.90;;;;;;5099899;28;20253;-78
2022/04/05 12:29:50;;;;;;;3.90;3.70;;;13.10;99.90;;;;;;5102890;28;20216;-77
2022/04/05 12:32:17;;;;;;;4.57;4.17;;;13.10;99.90;;;;;;5102264;28;20196;-80
2022/04/05 12:34:44;;;;;;;4.37;4.07;;;13.20;99.90;;;;;;5092849;28;20192;-84
2022/04/05 12:37:14;;;;;;;3.50;3.30;;;13.20;99.90;;;;;;5093670;28;20203;-82
2022/04/05 12:39:44;;;;;;;2.77;2.67;;;13.20;99.90;;;;;;5092890;28;20207;-83